sensor_id;sensor_type;location;lat;lon;timestamp;P1;durP1;ratioP1;P2;durP2;ratioP2
11269;SDS011;5692;48.956;9.200;2023-12-20T00:01:25;240.57;;;229.07;;
11269;SDS011;5692;48.956;9.200;2023-12-20T00:03:51;242.45;;;230.85;;
11269;SDS011;5692;48.956;9.200;2023-12-20T00:06:17;264.05;;;251.45;;
11269;SDS011;5692;48.956;9.200;2023-12-20T00:08:43;254.02;;;241.88;;
11269;SDS011;5692;48.956;9.200;2023-12-20T00:11:15;256.00;;;243.75;;
11269;SDS011;5692;48.956;9.200;2023-12-20T00:13:48;262.50;;;249.95;;
11269;SDS011;5692;48.956;9.200;2023-12-20T00:16:37;272.30;;;259.30;;
11269;SDS011;5692;48.956;9.200;2023-12-20T00:19:03;281.73;;;268.23;;
11269;SDS011;5692;48.956;9.200;2023-12-20T00:21:29;269.38;;;256.50;;
11269;SDS011;5692;48.956;9.200;2023-12-20T00:23:58;261.58;;;249.07;;
11269;SDS011;5692;48.956;9.200;2023-12-20T00:26:25;272.02;;;259.02;;
11269;SDS011;5692;48.956;9.200;2023-12-20T00:28:53;268.40;;;255.57;;
11269;SDS011;5692;48.956;9.200;2023-12-20T00:31:37;271.30;;;258.30;;
11269;SDS011;5692;48.956;9.200;2023-12-20T00:34:13;286.30;;;272.60;;
11269;SDS011;5692;48.956;9.200;2023-12-20T00:36:39;285.70;;;272.05;;
11269;SDS011;5692;48.956;9.200;2023-12-20T00:39:11;294.95;;;280.85;;
11269;SDS011;5692;48.956;9.200;2023-12-20T00:41:37;298.50;;;284.25;;
11269;SDS011;5692;48.956;9.200;2023-12-20T00:44:12;297.20;;;283.00;;
11269;SDS011;5692;48.956;9.200;2023-12-20T00:46:48;284.92;;;271.33;;
11269;SDS011;5692;48.956;9.200;2023-12-20T00:49:23;296.92;;;282.73;;
11269;SDS011;5692;48.956;9.200;2023-12-20T00:51:49;277.27;;;264.00;;
11269;SDS011;5692;48.956;9.200;2023-12-20T00:54:17;286.67;;;272.98;;
11269;SDS011;5692;48.956;9.200;2023-12-20T00:56:46;282.40;;;268.90;;
11269;SDS011;5692;48.956;9.200;2023-12-20T00:59:20;285.23;;;271.63;;
11269;SDS011;5692;48.956;9.200;2023-12-20T01:01:51;290.10;;;276.20;;
11269;SDS011;5692;48.956;9.200;2023-12-20T01:04:17;292.10;;;278.13;;
11269;SDS011;5692;48.956;9.200;2023-12-20T01:06:53;297.17;;;282.98;;
11269;SDS011;5692;48.956;9.200;2023-12-20T01:09:19;295.45;;;281.33;;
11269;SDS011;5692;48.956;9.200;2023-12-20T01:11:51;302.23;;;287.80;;
11269;SDS011;5692;48.956;9.200;2023-12-20T01:14:20;291.83;;;277.88;;
11269;SDS011;5692;48.956;9.200;2023-12-20T01:16:46;304.00;;;289.50;;
11269;SDS011;5692;48.956;9.200;2023-12-20T01:19:15;311.75;;;296.85;;
11269;SDS011;5692;48.956;9.200;2023-12-20T01:21:49;281.88;;;268.38;;
11269;SDS011;5692;48.956;9.200;2023-12-20T01:24:20;309.67;;;294.90;;
11269;SDS011;5692;48.956;9.200;2023-12-20T01:26:53;291.58;;;277.67;;
11269;SDS011;5692;48.956;9.200;2023-12-20T01:29:23;283.77;;;270.23;;
11269;SDS011;5692;48.956;9.200;2023-12-20T01:32:07;275.98;;;262.77;;
11269;SDS011;5692;48.956;9.200;2023-12-20T01:34:51;284.33;;;270.73;;
11269;SDS011;5692;48.956;9.200;2023-12-20T01:37:30;283.25;;;269.70;;
11269;SDS011;5692;48.956;9.200;2023-12-20T01:39:56;275.98;;;262.77;;
11269;SDS011;5692;48.956;9.200;2023-12-20T01:42:23;285.90;;;272.20;;
11269;SDS011;5692;48.956;9.200;2023-12-20T01:44:55;277.73;;;264.45;;
11269;SDS011;5692;48.956;9.200;2023-12-20T01:47:46;284.80;;;271.20;;
11269;SDS011;5692;48.956;9.200;2023-12-20T01:50:25;291.50;;;277.58;;
11269;SDS011;5692;48.956;9.200;2023-12-20T01:52:51;307.33;;;292.63;;
11269;SDS011;5692;48.956;9.200;2023-12-20T01:55:29;309.08;;;294.30;;
11269;SDS011;5692;48.956;9.200;2023-12-20T01:58:11;301.15;;;286.75;;
11269;SDS011;5692;48.956;9.200;2023-12-20T02:00:45;316.00;;;300.90;;
11269;SDS011;5692;48.956;9.200;2023-12-20T02:03:20;306.45;;;291.80;;
11269;SDS011;5692;48.956;9.200;2023-12-20T02:06:07;313.90;;;298.90;;
11269;SDS011;5692;48.956;9.200;2023-12-20T02:08:52;326.23;;;310.63;;
11269;SDS011;5692;48.956;9.200;2023-12-20T02:11:33;321.02;;;305.70;;
11269;SDS011;5692;48.956;9.200;2023-12-20T02:14:07;315.92;;;300.83;;
11269;SDS011;5692;48.956;9.200;2023-12-20T02:16:46;307.20;;;292.55;;
11269;SDS011;5692;48.956;9.200;2023-12-20T02:19:15;313.63;;;298.63;;
11269;SDS011;5692;48.956;9.200;2023-12-20T02:21:44;304.65;;;290.10;;
11269;SDS011;5692;48.956;9.200;2023-12-20T02:24:15;297.23;;;283.02;;
11269;SDS011;5692;48.956;9.200;2023-12-20T02:26:45;310.73;;;295.88;;
11269;SDS011;5692;48.956;9.200;2023-12-20T02:29:16;319.52;;;304.25;;
11269;SDS011;5692;48.956;9.200;2023-12-20T02:31:47;298.85;;;284.58;;
11269;SDS011;5692;48.956;9.200;2023-12-20T02:34:15;307.13;;;292.45;;
11269;SDS011;5692;48.956;9.200;2023-12-20T02:36:44;306.65;;;292.00;;
11269;SDS011;5692;48.956;9.200;2023-12-20T02:39:13;331.58;;;315.73;;
11269;SDS011;5692;48.956;9.200;2023-12-20T02:41:47;310.50;;;295.67;;
11269;SDS011;5692;48.956;9.200;2023-12-20T02:44:25;334.83;;;318.83;;
11269;SDS011;5692;48.956;9.200;2023-12-20T02:46:54;337.38;;;321.25;;
11269;SDS011;5692;48.956;9.200;2023-12-20T02:52:15;352.20;;;335.38;;
11269;SDS011;5692;48.956;9.200;2023-12-20T02:54:43;333.05;;;317.15;;
11269;SDS011;5692;48.956;9.200;2023-12-20T02:57:30;322.65;;;307.23;;
11269;SDS011;5692;48.956;9.200;2023-12-20T02:59:59;322.10;;;306.70;;
11269;SDS011;5692;48.956;9.200;2023-12-20T03:02:38;326.40;;;310.80;;
11269;SDS011;5692;48.956;9.200;2023-12-20T03:05:04;327.85;;;312.20;;
11269;SDS011;5692;48.956;9.200;2023-12-20T03:07:36;321.08;;;305.73;;
11269;SDS011;5692;48.956;9.200;2023-12-20T03:10:05;344.10;;;327.65;;
11269;SDS011;5692;48.956;9.200;2023-12-20T03:12:45;335.77;;;319.73;;
11269;SDS011;5692;48.956;9.200;2023-12-20T03:15:21;336.70;;;320.60;;
11269;SDS011;5692;48.956;9.200;2023-12-20T03:17:50;329.65;;;313.90;;
11269;SDS011;5692;48.956;9.200;2023-12-20T03:20:21;317.95;;;302.77;;
11269;SDS011;5692;48.956;9.200;2023-12-20T03:25:48;319.30;;;304.05;;
11269;SDS011;5692;48.956;9.200;2023-12-20T03:28:16;321.92;;;306.52;;
11269;SDS011;5692;48.956;9.200;2023-12-20T03:30:57;319.83;;;304.52;;
11269;SDS011;5692;48.956;9.200;2023-12-20T03:33:30;323.35;;;307.90;;
11269;SDS011;5692;48.956;9.200;2023-12-20T03:35:58;329.85;;;314.10;;
11269;SDS011;5692;48.956;9.200;2023-12-20T03:38:36;319.92;;;304.65;;
11269;SDS011;5692;48.956;9.200;2023-12-20T03:41:08;321.00;;;305.67;;
11269;SDS011;5692;48.956;9.200;2023-12-20T03:43:34;315.92;;;300.85;;
11269;SDS011;5692;48.956;9.200;2023-12-20T03:46:03;312.73;;;297.80;;
11269;SDS011;5692;48.956;9.200;2023-12-20T03:48:30;312.63;;;297.73;;
11269;SDS011;5692;48.956;9.200;2023-12-20T03:50:59;325.88;;;310.30;;
11269;SDS011;5692;48.956;9.200;2023-12-20T03:53:25;311.00;;;296.10;;
11269;SDS011;5692;48.956;9.200;2023-12-20T03:55:51;328.70;;;313.02;;
11269;SDS011;5692;48.956;9.200;2023-12-20T03:58:18;326.63;;;311.02;;
11269;SDS011;5692;48.956;9.200;2023-12-20T04:00:50;328.85;;;313.15;;
11269;SDS011;5692;48.956;9.200;2023-12-20T04:03:16;328.98;;;313.27;;
11269;SDS011;5692;48.956;9.200;2023-12-20T04:05:47;311.58;;;296.70;;
11269;SDS011;5692;48.956;9.200;2023-12-20T04:08:22;311.75;;;296.85;;
11269;SDS011;5692;48.956;9.200;2023-12-20T04:10:51;314.15;;;299.15;;
11269;SDS011;5692;48.956;9.200;2023-12-20T04:13:23;318.35;;;303.15;;
11269;SDS011;5692;48.956;9.200;2023-12-20T04:15:54;318.98;;;303.73;;
11269;SDS011;5692;48.956;9.200;2023-12-20T04:18:22;326.48;;;310.88;;
11269;SDS011;5692;48.956;9.200;2023-12-20T04:21:18;341.48;;;325.17;;
11269;SDS011;5692;48.956;9.200;2023-12-20T04:23:45;333.13;;;317.23;;
11269;SDS011;5692;48.956;9.200;2023-12-20T04:26:11;330.80;;;315.00;;
11269;SDS011;5692;48.956;9.200;2023-12-20T04:28:46;331.42;;;315.58;;
11269;SDS011;5692;48.956;9.200;2023-12-20T04:31:12;329.02;;;313.30;;
11269;SDS011;5692;48.956;9.200;2023-12-20T04:33:38;323.52;;;308.02;;
11269;SDS011;5692;48.956;9.200;2023-12-20T04:36:05;330.40;;;314.60;;
11269;SDS011;5692;48.956;9.200;2023-12-20T04:41:20;309.90;;;295.10;;
11269;SDS011;5692;48.956;9.200;2023-12-20T04:43:52;300.50;;;286.10;;
11269;SDS011;5692;48.956;9.200;2023-12-20T04:46:23;312.15;;;297.25;;
11269;SDS011;5692;48.956;9.200;2023-12-20T04:48:57;306.95;;;292.30;;
11269;SDS011;5692;48.956;9.200;2023-12-20T04:51:23;315.02;;;299.98;;
11269;SDS011;5692;48.956;9.200;2023-12-20T04:53:52;319.08;;;303.88;;
11269;SDS011;5692;48.956;9.200;2023-12-20T04:56:18;325.30;;;309.77;;
11269;SDS011;5692;48.956;9.200;2023-12-20T04:58:49;319.13;;;303.88;;
11269;SDS011;5692;48.956;9.200;2023-12-20T05:01:21;316.17;;;301.08;;
11269;SDS011;5692;48.956;9.200;2023-12-20T05:04:08;324.60;;;309.10;;
11269;SDS011;5692;48.956;9.200;2023-12-20T05:06:41;330.95;;;315.15;;
11269;SDS011;5692;48.956;9.200;2023-12-20T05:09:16;329.75;;;314.00;;
11269;SDS011;5692;48.956;9.200;2023-12-20T05:11:48;327.17;;;311.52;;
11269;SDS011;5692;48.956;9.200;2023-12-20T05:14:24;320.52;;;305.20;;
11269;SDS011;5692;48.956;9.200;2023-12-20T05:16:56;306.50;;;291.85;;
11269;SDS011;5692;48.956;9.200;2023-12-20T05:19:24;322.50;;;307.10;;
11269;SDS011;5692;48.956;9.200;2023-12-20T05:21:55;318.75;;;303.52;;
11269;SDS011;5692;48.956;9.200;2023-12-20T05:24:27;322.95;;;307.52;;
11269;SDS011;5692;48.956;9.200;2023-12-20T05:26:53;329.35;;;313.65;;
11269;SDS011;5692;48.956;9.200;2023-12-20T05:29:20;320.05;;;304.75;;
11269;SDS011;5692;48.956;9.200;2023-12-20T05:31:51;319.83;;;304.58;;
11269;SDS011;5692;48.956;9.200;2023-12-20T05:34:27;323.17;;;307.77;;
11269;SDS011;5692;48.956;9.200;2023-12-20T05:36:57;318.90;;;303.65;;
11269;SDS011;5692;48.956;9.200;2023-12-20T05:39:32;315.85;;;300.75;;
11269;SDS011;5692;48.956;9.200;2023-12-20T05:42:05;336.20;;;320.10;;
11269;SDS011;5692;48.956;9.200;2023-12-20T05:44:41;335.92;;;319.88;;
11269;SDS011;5692;48.956;9.200;2023-12-20T05:47:23;328.13;;;312.45;;
11269;SDS011;5692;48.956;9.200;2023-12-20T05:49:49;328.52;;;312.83;;
11269;SDS011;5692;48.956;9.200;2023-12-20T05:52:33;327.90;;;312.25;;
11269;SDS011;5692;48.956;9.200;2023-12-20T05:54:59;333.05;;;317.15;;
11269;SDS011;5692;48.956;9.200;2023-12-20T05:57:28;320.85;;;305.55;;
11269;SDS011;5692;48.956;9.200;2023-12-20T05:59:54;348.13;;;331.52;;
11269;SDS011;5692;48.956;9.200;2023-12-20T06:02:23;341.98;;;325.65;;
11269;SDS011;5692;48.956;9.200;2023-12-20T06:05:15;360.48;;;343.27;;
11269;SDS011;5692;48.956;9.200;2023-12-20T06:07:44;333.35;;;317.42;;
11269;SDS011;5692;48.956;9.200;2023-12-20T06:10:14;325.10;;;309.58;;
11269;SDS011;5692;48.956;9.200;2023-12-20T06:12:40;332.05;;;316.15;;
11269;SDS011;5692;48.956;9.200;2023-12-20T06:15:07;345.45;;;328.95;;
11269;SDS011;5692;48.956;9.200;2023-12-20T06:17:53;330.05;;;314.27;;
11269;SDS011;5692;48.956;9.200;2023-12-20T06:21:00;321.65;;;306.27;;
11269;SDS011;5692;48.956;9.200;2023-12-20T06:23:51;329.75;;;314.00;;
11269;SDS011;5692;48.956;9.200;2023-12-20T06:26:19;336.23;;;320.13;;
11269;SDS011;5692;48.956;9.200;2023-12-20T06:28:48;328.08;;;312.40;;
11269;SDS011;5692;48.956;9.200;2023-12-20T06:31:17;347.35;;;330.75;;
11269;SDS011;5692;48.956;9.200;2023-12-20T06:33:52;326.42;;;310.83;;
11269;SDS011;5692;48.956;9.200;2023-12-20T06:36:34;318.70;;;303.48;;
11269;SDS011;5692;48.956;9.200;2023-12-20T06:39:02;337.23;;;321.13;;
11269;SDS011;5692;48.956;9.200;2023-12-20T06:41:46;325.65;;;310.05;;
11269;SDS011;5692;48.956;9.200;2023-12-20T06:44:19;329.17;;;313.48;;
11269;SDS011;5692;48.956;9.200;2023-12-20T06:46:55;335.50;;;319.50;;
11269;SDS011;5692;48.956;9.200;2023-12-20T06:49:28;324.10;;;308.60;;
11269;SDS011;5692;48.956;9.200;2023-12-20T06:55:05;333.35;;;317.45;;
11269;SDS011;5692;48.956;9.200;2023-12-20T06:57:34;330.17;;;314.42;;
11269;SDS011;5692;48.956;9.200;2023-12-20T07:00:01;315.25;;;300.20;;
11269;SDS011;5692;48.956;9.200;2023-12-20T07:02:33;323.42;;;307.98;;
11269;SDS011;5692;48.956;9.200;2023-12-20T07:05:25;325.58;;;310.02;;
11269;SDS011;5692;48.956;9.200;2023-12-20T07:07:57;330.30;;;314.50;;
11269;SDS011;5692;48.956;9.200;2023-12-20T07:10:32;326.42;;;310.83;;
11269;SDS011;5692;48.956;9.200;2023-12-20T07:12:58;316.23;;;301.13;;
11269;SDS011;5692;48.956;9.200;2023-12-20T07:15:24;328.38;;;312.67;;
11269;SDS011;5692;48.956;9.200;2023-12-20T07:17:57;335.42;;;319.42;;
11269;SDS011;5692;48.956;9.200;2023-12-20T07:23:14;340.40;;;324.15;;
11269;SDS011;5692;48.956;9.200;2023-12-20T07:25:57;330.17;;;314.38;;
11269;SDS011;5692;48.956;9.200;2023-12-20T07:28:26;306.83;;;292.17;;
11269;SDS011;5692;48.956;9.200;2023-12-20T07:41:19;298.23;;;283.98;;
11269;SDS011;5692;48.956;9.200;2023-12-20T07:43:49;302.08;;;287.65;;
11269;SDS011;5692;48.956;9.200;2023-12-20T07:46:16;292.50;;;278.50;;
11269;SDS011;5692;48.956;9.200;2023-12-20T07:48:44;310.52;;;295.70;;
11269;SDS011;5692;48.956;9.200;2023-12-20T07:51:11;294.05;;;280.02;;
11269;SDS011;5692;48.956;9.200;2023-12-20T07:53:39;299.92;;;285.60;;
11269;SDS011;5692;48.956;9.200;2023-12-20T07:56:17;306.77;;;292.10;;
11269;SDS011;5692;48.956;9.200;2023-12-20T07:58:44;302.25;;;287.80;;
11269;SDS011;5692;48.956;9.200;2023-12-20T08:01:13;286.65;;;272.95;;
11269;SDS011;5692;48.956;9.200;2023-12-20T08:03:39;286.08;;;272.40;;
11269;SDS011;5692;48.956;9.200;2023-12-20T08:06:06;289.35;;;275.52;;
11269;SDS011;5692;48.956;9.200;2023-12-20T08:08:32;292.63;;;278.63;;
11269;SDS011;5692;48.956;9.200;2023-12-20T08:10:58;290.73;;;276.83;;
11269;SDS011;5692;48.956;9.200;2023-12-20T08:13:25;282.85;;;269.33;;
11269;SDS011;5692;48.956;9.200;2023-12-20T08:15:52;287.10;;;273.38;;
11269;SDS011;5692;48.956;9.200;2023-12-20T08:18:18;275.58;;;262.38;;
11269;SDS011;5692;48.956;9.200;2023-12-20T08:20:44;293.88;;;279.85;;
11269;SDS011;5692;48.956;9.200;2023-12-20T08:23:10;287.98;;;274.23;;
11269;SDS011;5692;48.956;9.200;2023-12-20T08:25:36;293.98;;;279.92;;
11269;SDS011;5692;48.956;9.200;2023-12-20T08:28:02;281.60;;;268.10;;
11269;SDS011;5692;48.956;9.200;2023-12-20T08:30:29;272.50;;;259.50;;
11269;SDS011;5692;48.956;9.200;2023-12-20T08:32:56;280.23;;;266.83;;
11269;SDS011;5692;48.956;9.200;2023-12-20T08:35:22;288.10;;;274.30;;
11269;SDS011;5692;48.956;9.200;2023-12-20T08:37:49;273.05;;;260.00;;
11269;SDS011;5692;48.956;9.200;2023-12-20T08:40:15;255.68;;;243.45;;
11269;SDS011;5692;48.956;9.200;2023-12-20T08:42:41;267.10;;;254.35;;
11269;SDS011;5692;48.956;9.200;2023-12-20T08:45:07;263.27;;;250.68;;
11269;SDS011;5692;48.956;9.200;2023-12-20T08:47:33;258.00;;;245.68;;
11269;SDS011;5692;48.956;9.200;2023-12-20T08:49:59;268.63;;;255.80;;
11269;SDS011;5692;48.956;9.200;2023-12-20T08:52:26;266.42;;;253.70;;
11269;SDS011;5692;48.956;9.200;2023-12-20T08:54:53;265.63;;;252.93;;
11269;SDS011;5692;48.956;9.200;2023-12-20T08:57:22;267.05;;;254.25;;
11269;SDS011;5692;48.956;9.200;2023-12-20T08:59:51;269.35;;;256.45;;
11269;SDS011;5692;48.956;9.200;2023-12-20T09:02:17;258.33;;;245.98;;
11269;SDS011;5692;48.956;9.200;2023-12-20T09:04:43;253.95;;;241.82;;
11269;SDS011;5692;48.956;9.200;2023-12-20T09:07:25;255.52;;;243.30;;
11269;SDS011;5692;48.956;9.200;2023-12-20T09:09:51;242.82;;;231.23;;
11269;SDS011;5692;48.956;9.200;2023-12-20T09:12:18;241.13;;;229.57;;
11269;SDS011;5692;48.956;9.200;2023-12-20T09:14:44;242.80;;;231.20;;
11269;SDS011;5692;48.956;9.200;2023-12-20T09:17:11;255.80;;;243.57;;
11269;SDS011;5692;48.956;9.200;2023-12-20T09:19:37;263.42;;;250.82;;
11269;SDS011;5692;48.956;9.200;2023-12-20T09:22:04;251.25;;;239.25;;
11269;SDS011;5692;48.956;9.200;2023-12-20T09:24:30;266.23;;;253.50;;
11269;SDS011;5692;48.956;9.200;2023-12-20T09:26:56;245.05;;;233.35;;
11269;SDS011;5692;48.956;9.200;2023-12-20T09:29:22;245.63;;;233.88;;
11269;SDS011;5692;48.956;9.200;2023-12-20T09:31:49;250.23;;;238.23;;
11269;SDS011;5692;48.956;9.200;2023-12-20T09:34:15;245.23;;;233.48;;
11269;SDS011;5692;48.956;9.200;2023-12-20T09:36:44;241.00;;;229.48;;
11269;SDS011;5692;48.956;9.200;2023-12-20T09:39:15;242.00;;;230.40;;
11269;SDS011;5692;48.956;9.200;2023-12-20T09:41:44;234.23;;;223.02;;
11269;SDS011;5692;48.956;9.200;2023-12-20T09:44:15;226.70;;;215.85;;
11269;SDS011;5692;48.956;9.200;2023-12-20T09:46:45;236.20;;;224.90;;
11269;SDS011;5692;48.956;9.200;2023-12-20T09:49:11;228.43;;;217.50;;
11269;SDS011;5692;48.956;9.200;2023-12-20T09:51:38;228.95;;;218.00;;
11269;SDS011;5692;48.956;9.200;2023-12-20T09:54:04;227.90;;;217.00;;
11269;SDS011;5692;48.956;9.200;2023-12-20T09:56:30;232.27;;;221.18;;
11269;SDS011;5692;48.956;9.200;2023-12-20T09:58:56;220.52;;;209.98;;
11269;SDS011;5692;48.956;9.200;2023-12-20T10:01:23;211.65;;;201.50;;
11269;SDS011;5692;48.956;9.200;2023-12-20T10:03:50;204.48;;;194.68;;
11269;SDS011;5692;48.956;9.200;2023-12-20T10:06:17;200.68;;;191.07;;
11269;SDS011;5692;48.956;9.200;2023-12-20T10:08:43;210.43;;;200.32;;
11269;SDS011;5692;48.956;9.200;2023-12-20T10:11:09;214.43;;;204.15;;
11269;SDS011;5692;48.956;9.200;2023-12-20T10:13:38;210.20;;;200.10;;
11269;SDS011;5692;48.956;9.200;2023-12-20T10:16:05;210.93;;;200.82;;
11269;SDS011;5692;48.956;9.200;2023-12-20T10:18:32;213.68;;;203.45;;
11269;SDS011;5692;48.956;9.200;2023-12-20T10:20:58;193.38;;;184.07;;
11269;SDS011;5692;48.956;9.200;2023-12-20T10:23:24;211.18;;;201.07;;
11269;SDS011;5692;48.956;9.200;2023-12-20T10:25:57;211.70;;;201.60;;
11269;SDS011;5692;48.956;9.200;2023-12-20T10:28:23;210.32;;;200.27;;
11269;SDS011;5692;48.956;9.200;2023-12-20T10:30:52;202.60;;;192.90;;
11269;SDS011;5692;48.956;9.200;2023-12-20T10:33:29;207.38;;;197.43;;
11269;SDS011;5692;48.956;9.200;2023-12-20T10:35:57;202.77;;;193.07;;
11269;SDS011;5692;48.956;9.200;2023-12-20T10:38:23;192.27;;;183.07;;
11269;SDS011;5692;48.956;9.200;2023-12-20T10:40:49;190.25;;;181.15;;
11269;SDS011;5692;48.956;9.200;2023-12-20T10:43:17;200.98;;;191.35;;
11269;SDS011;5692;48.956;9.200;2023-12-20T10:45:43;192.25;;;183.05;;
11269;SDS011;5692;48.956;9.200;2023-12-20T10:48:10;199.00;;;189.48;;
11269;SDS011;5692;48.956;9.200;2023-12-20T10:50:37;204.90;;;195.10;;
11269;SDS011;5692;48.956;9.200;2023-12-20T10:53:06;191.88;;;182.70;;
11269;SDS011;5692;48.956;9.200;2023-12-20T10:55:32;213.07;;;202.88;;
11269;SDS011;5692;48.956;9.200;2023-12-20T10:58:03;193.55;;;184.25;;
11269;SDS011;5692;48.956;9.200;2023-12-20T11:00:32;198.65;;;189.15;;
11269;SDS011;5692;48.956;9.200;2023-12-20T11:03:00;203.10;;;193.40;;
11269;SDS011;5692;48.956;9.200;2023-12-20T11:08:12;189.80;;;180.70;;
11269;SDS011;5692;48.956;9.200;2023-12-20T11:10:49;196.63;;;187.23;;
11269;SDS011;5692;48.956;9.200;2023-12-20T11:13:20;203.57;;;193.82;;
11269;SDS011;5692;48.956;9.200;2023-12-20T11:15:48;219.57;;;209.05;;
11269;SDS011;5692;48.956;9.200;2023-12-20T11:18:14;218.25;;;207.80;;
11269;SDS011;5692;48.956;9.200;2023-12-20T11:20:41;218.20;;;207.77;;
11269;SDS011;5692;48.956;9.200;2023-12-20T11:23:07;214.77;;;204.50;;
11269;SDS011;5692;48.956;9.200;2023-12-20T11:25:54;205.05;;;195.25;;
11269;SDS011;5692;48.956;9.200;2023-12-20T11:28:20;208.40;;;198.43;;
11269;SDS011;5692;48.956;9.200;2023-12-20T11:30:47;209.70;;;199.65;;
11269;SDS011;5692;48.956;9.200;2023-12-20T11:33:14;207.48;;;197.55;;
11269;SDS011;5692;48.956;9.200;2023-12-20T11:35:40;207.43;;;197.52;;
11269;SDS011;5692;48.956;9.200;2023-12-20T11:38:10;211.85;;;201.73;;
11269;SDS011;5692;48.956;9.200;2023-12-20T11:40:36;200.90;;;191.30;;
11269;SDS011;5692;48.956;9.200;2023-12-20T11:43:02;207.48;;;197.55;;
11269;SDS011;5692;48.956;9.200;2023-12-20T11:45:29;201.38;;;191.77;;
11269;SDS011;5692;48.956;9.200;2023-12-20T11:47:56;191.32;;;182.15;;
11269;SDS011;5692;48.956;9.200;2023-12-20T11:50:22;204.55;;;194.75;;
11269;SDS011;5692;48.956;9.200;2023-12-20T11:52:49;201.50;;;191.85;;
11269;SDS011;5692;48.956;9.200;2023-12-20T11:55:16;184.80;;;175.95;;
11269;SDS011;5692;48.956;9.200;2023-12-20T11:57:42;187.07;;;178.13;;
11269;SDS011;5692;48.956;9.200;2023-12-20T12:00:10;197.63;;;188.18;;
11269;SDS011;5692;48.956;9.200;2023-12-20T12:02:36;192.07;;;182.88;;
11269;SDS011;5692;48.956;9.200;2023-12-20T12:05:02;206.00;;;196.13;;
11269;SDS011;5692;48.956;9.200;2023-12-20T12:07:30;204.38;;;194.57;;
11269;SDS011;5692;48.956;9.200;2023-12-20T12:09:56;197.48;;;188.02;;
11269;SDS011;5692;48.956;9.200;2023-12-20T12:12:23;204.02;;;194.27;;
11269;SDS011;5692;48.956;9.200;2023-12-20T12:14:52;216.43;;;206.05;;
11269;SDS011;5692;48.956;9.200;2023-12-20T12:17:18;203.38;;;193.65;;
11269;SDS011;5692;48.956;9.200;2023-12-20T12:19:44;223.00;;;212.32;;
11269;SDS011;5692;48.956;9.200;2023-12-20T12:22:11;195.38;;;186.02;;
11269;SDS011;5692;48.956;9.200;2023-12-20T12:24:41;207.73;;;197.80;;
11269;SDS011;5692;48.956;9.200;2023-12-20T12:27:07;205.20;;;195.38;;
11269;SDS011;5692;48.956;9.200;2023-12-20T12:29:36;222.20;;;211.60;;
11269;SDS011;5692;48.956;9.200;2023-12-20T12:32:06;220.48;;;209.93;;
11269;SDS011;5692;48.956;9.200;2023-12-20T12:34:32;205.32;;;195.52;;
11269;SDS011;5692;48.956;9.200;2023-12-20T12:36:59;210.30;;;200.25;;
11269;SDS011;5692;48.956;9.200;2023-12-20T12:39:25;210.57;;;200.50;;
11269;SDS011;5692;48.956;9.200;2023-12-20T12:41:51;203.15;;;193.45;;
11269;SDS011;5692;48.956;9.200;2023-12-20T12:44:17;209.80;;;199.80;;
11269;SDS011;5692;48.956;9.200;2023-12-20T12:46:44;199.45;;;189.90;;
11269;SDS011;5692;48.956;9.200;2023-12-20T12:49:10;192.32;;;183.10;;
11269;SDS011;5692;48.956;9.200;2023-12-20T12:51:36;209.50;;;199.48;;
11269;SDS011;5692;48.956;9.200;2023-12-20T12:54:02;213.52;;;203.32;;
11269;SDS011;5692;48.956;9.200;2023-12-20T12:56:29;206.57;;;196.68;;
11269;SDS011;5692;48.956;9.200;2023-12-20T12:58:55;231.75;;;220.65;;
11269;SDS011;5692;48.956;9.200;2023-12-20T13:01:21;227.70;;;216.80;;
11269;SDS011;5692;48.956;9.200;2023-12-20T13:03:47;228.38;;;217.48;;
11269;SDS011;5692;48.956;9.200;2023-12-20T13:06:13;214.13;;;203.88;;
11269;SDS011;5692;48.956;9.200;2023-12-20T13:08:39;221.70;;;211.10;;
11269;SDS011;5692;48.956;9.200;2023-12-20T13:11:05;202.45;;;192.80;;
11269;SDS011;5692;48.956;9.200;2023-12-20T13:13:31;206.93;;;197.02;;
11269;SDS011;5692;48.956;9.200;2023-12-20T13:15:57;213.45;;;203.23;;
11269;SDS011;5692;48.956;9.200;2023-12-20T13:18:23;224.48;;;213.73;;
11269;SDS011;5692;48.956;9.200;2023-12-20T13:20:49;215.57;;;205.27;;
11269;SDS011;5692;48.956;9.200;2023-12-20T13:23:16;229.88;;;218.88;;
11269;SDS011;5692;48.956;9.200;2023-12-20T13:25:43;218.55;;;208.07;;
11269;SDS011;5692;48.956;9.200;2023-12-20T13:28:12;219.88;;;209.38;;
11269;SDS011;5692;48.956;9.200;2023-12-20T13:30:38;219.65;;;209.15;;
11269;SDS011;5692;48.956;9.200;2023-12-20T13:33:05;213.38;;;203.18;;
11269;SDS011;5692;48.956;9.200;2023-12-20T13:35:31;209.77;;;199.73;;
11269;SDS011;5692;48.956;9.200;2023-12-20T13:37:57;212.75;;;202.55;;
11269;SDS011;5692;48.956;9.200;2023-12-20T13:40:23;218.23;;;207.77;;
11269;SDS011;5692;48.956;9.200;2023-12-20T13:42:49;196.45;;;187.05;;
11269;SDS011;5692;48.956;9.200;2023-12-20T13:45:15;206.40;;;196.50;;
11269;SDS011;5692;48.956;9.200;2023-12-20T13:47:42;200.82;;;191.23;;
11269;SDS011;5692;48.956;9.200;2023-12-20T13:50:07;193.90;;;184.60;;
11269;SDS011;5692;48.956;9.200;2023-12-20T13:52:34;198.65;;;189.15;;
11269;SDS011;5692;48.956;9.200;2023-12-20T13:55:01;202.05;;;192.38;;
11269;SDS011;5692;48.956;9.200;2023-12-20T13:57:27;199.52;;;189.98;;
11269;SDS011;5692;48.956;9.200;2023-12-20T13:59:54;199.98;;;190.40;;
11269;SDS011;5692;48.956;9.200;2023-12-20T14:02:22;199.38;;;189.82;;
11269;SDS011;5692;48.956;9.200;2023-12-20T14:04:48;187.30;;;178.30;;
11269;SDS011;5692;48.956;9.200;2023-12-20T14:07:14;186.55;;;177.63;;
11269;SDS011;5692;48.956;9.200;2023-12-20T14:09:41;189.50;;;180.43;;
11269;SDS011;5692;48.956;9.200;2023-12-20T14:12:10;184.65;;;175.82;;
11269;SDS011;5692;48.956;9.200;2023-12-20T14:14:36;198.25;;;188.77;;
11269;SDS011;5692;48.956;9.200;2023-12-20T14:17:02;189.60;;;180.52;;
11269;SDS011;5692;48.956;9.200;2023-12-20T14:19:29;188.85;;;179.82;;
11269;SDS011;5692;48.956;9.200;2023-12-20T14:21:55;180.23;;;171.60;;
11269;SDS011;5692;48.956;9.200;2023-12-20T14:24:21;186.90;;;177.95;;
11269;SDS011;5692;48.956;9.200;2023-12-20T14:26:47;187.38;;;178.38;;
11269;SDS011;5692;48.956;9.200;2023-12-20T14:29:13;185.80;;;176.90;;
11269;SDS011;5692;48.956;9.200;2023-12-20T14:31:39;193.75;;;184.45;;
11269;SDS011;5692;48.956;9.200;2023-12-20T14:34:05;172.27;;;164.00;;
11269;SDS011;5692;48.956;9.200;2023-12-20T14:36:31;191.73;;;182.52;;
11269;SDS011;5692;48.956;9.200;2023-12-20T14:38:58;187.40;;;178.40;;
11269;SDS011;5692;48.956;9.200;2023-12-20T14:41:24;172.82;;;164.52;;
11269;SDS011;5692;48.956;9.200;2023-12-20T14:43:50;183.40;;;174.60;;
11269;SDS011;5692;48.956;9.200;2023-12-20T14:46:18;186.15;;;177.25;;
11269;SDS011;5692;48.956;9.200;2023-12-20T14:48:44;190.18;;;181.07;;
11269;SDS011;5692;48.956;9.200;2023-12-20T14:51:10;206.98;;;197.05;;